sensor_id;sensor_type;location;lat;lon;timestamp;P1;durP1;ratioP1;P2;durP2;ratioP2
12308;SDS011;6217;48.150;17.142;2023-01-26T18:26:52;51.15;;;23.98;;
12308;SDS011;6217;48.150;17.142;2023-01-26T18:30:57;48.90;;;24.20;;
12308;SDS011;6217;48.150;17.142;2023-01-26T18:35:05;46.83;;;24.55;;
12308;SDS011;6217;48.150;17.142;2023-01-26T18:39:12;54.90;;;25.40;;
12308;SDS011;6217;48.150;17.142;2023-01-26T18:43:18;49.22;;;24.80;;
12308;SDS011;6217;48.150;17.142;2023-01-26T18:47:27;59.03;;;26.45;;
12308;SDS011;6217;48.150;17.142;2023-01-26T18:51:34;52.80;;;24.58;;
12308;SDS011;6217;48.150;17.142;2023-01-26T18:55:40;47.20;;;24.40;;
12308;SDS011;6217;48.150;17.142;2023-01-26T18:59:49;53.42;;;27.33;;
12308;SDS011;6217;48.150;17.142;2023-01-26T19:03:55;43.55;;;23.08;;
12308;SDS011;6217;48.150;17.142;2023-01-26T19:08:02;36.10;;;19.80;;
12308;SDS011;6217;48.150;17.142;2023-01-26T19:12:14;44.60;;;22.50;;
12308;SDS011;6217;48.150;17.142;2023-01-26T19:16:20;43.03;;;21.23;;
12308;SDS011;6217;48.150;17.142;2023-01-26T19:20:28;47.55;;;22.80;;
12308;SDS011;6217;48.150;17.142;2023-01-26T19:24:34;44.63;;;20.48;;
12308;SDS011;6217;48.150;17.142;2023-01-26T19:28:40;37.50;;;19.17;;
12308;SDS011;6217;48.150;17.142;2023-01-26T19:32:46;37.70;;;21.20;;
12308;SDS011;6217;48.150;17.142;2023-01-26T19:37:15;43.83;;;21.15;;
12308;SDS011;6217;48.150;17.142;2023-01-26T19:41:21;44.58;;;20.98;;
12308;SDS011;6217;48.150;17.142;2023-01-26T19:45:28;47.35;;;22.42;;
12308;SDS011;6217;48.150;17.142;2023-01-26T19:49:33;46.75;;;23.98;;
12308;SDS011;6217;48.150;17.142;2023-01-26T19:53:41;46.25;;;23.52;;
12308;SDS011;6217;48.150;17.142;2023-01-26T19:57:49;49.50;;;26.73;;
12308;SDS011;6217;48.150;17.142;2023-01-26T20:01:58;51.03;;;25.55;;
12308;SDS011;6217;48.150;17.142;2023-01-26T20:06:04;43.83;;;24.20;;
12308;SDS011;6217;48.150;17.142;2023-01-26T20:10:13;51.95;;;25.88;;
12308;SDS011;6217;48.150;17.142;2023-01-26T20:14:20;55.63;;;26.65;;
12308;SDS011;6217;48.150;17.142;2023-01-26T20:18:26;44.38;;;23.40;;
12308;SDS011;6217;48.150;17.142;2023-01-26T20:22:34;44.05;;;21.52;;
12308;SDS011;6217;48.150;17.142;2023-01-26T20:26:41;39.60;;;22.42;;
12308;SDS011;6217;48.150;17.142;2023-01-26T20:30:48;41.90;;;20.92;;
12308;SDS011;6217;48.150;17.142;2023-01-26T20:34:54;36.50;;;21.70;;
12308;SDS011;6217;48.150;17.142;2023-01-26T20:39:02;38.25;;;22.00;;
12308;SDS011;6217;48.150;17.142;2023-01-26T20:43:09;41.40;;;21.38;;
12308;SDS011;6217;48.150;17.142;2023-01-26T20:47:18;38.70;;;21.48;;
12308;SDS011;6217;48.150;17.142;2023-01-26T20:51:31;39.90;;;20.23;;
12308;SDS011;6217;48.150;17.142;2023-01-26T20:55:40;36.53;;;22.25;;
12308;SDS011;6217;48.150;17.142;2023-01-26T20:59:46;39.90;;;20.95;;
12308;SDS011;6217;48.150;17.142;2023-01-26T21:03:52;46.60;;;23.42;;
12308;SDS011;6217;48.150;17.142;2023-01-26T21:07:58;43.55;;;23.65;;
12308;SDS011;6217;48.150;17.142;2023-01-26T21:12:04;37.75;;;22.02;;
12308;SDS011;6217;48.150;17.142;2023-01-26T21:16:14;38.00;;;23.10;;
12308;SDS011;6217;48.150;17.142;2023-01-26T21:20:21;40.67;;;22.40;;
12308;SDS011;6217;48.150;17.142;2023-01-26T21:24:26;40.50;;;23.17;;
12308;SDS011;6217;48.150;17.142;2023-01-26T21:28:32;41.03;;;23.15;;
12308;SDS011;6217;48.150;17.142;2023-01-26T21:32:38;46.35;;;25.00;;
12308;SDS011;6217;48.150;17.142;2023-01-26T21:36:44;38.15;;;22.83;;
12308;SDS011;6217;48.150;17.142;2023-01-26T21:41:07;40.40;;;21.90;;
12308;SDS011;6217;48.150;17.142;2023-01-26T21:45:40;42.47;;;21.58;;
12308;SDS011;6217;48.150;17.142;2023-01-26T21:49:58;39.10;;;21.77;;
12308;SDS011;6217;48.150;17.142;2023-01-26T21:54:04;38.55;;;20.52;;
12308;SDS011;6217;48.150;17.142;2023-01-26T21:58:13;33.95;;;17.77;;
12308;SDS011;6217;48.150;17.142;2023-01-26T22:02:44;37.97;;;20.73;;
12308;SDS011;6217;48.150;17.142;2023-01-26T22:30:31;43.63;;;22.55;;
12308;SDS011;6217;48.150;17.142;2023-01-26T22:34:38;36.85;;;20.88;;
12308;SDS011;6217;48.150;17.142;2023-01-26T22:38:44;38.17;;;19.70;;
12308;SDS011;6217;48.150;17.142;2023-01-26T22:42:51;34.90;;;19.33;;
12308;SDS011;6217;48.150;17.142;2023-01-26T22:46:57;30.52;;;17.25;;
12308;SDS011;6217;48.150;17.142;2023-01-26T22:51:10;35.60;;;18.30;;
12308;SDS011;6217;48.150;17.142;2023-01-26T22:55:28;33.08;;;19.30;;
12308;SDS011;6217;48.150;17.142;2023-01-26T22:59:34;30.98;;;15.65;;
12308;SDS011;6217;48.150;17.142;2023-01-26T23:03:40;27.58;;;15.68;;
12308;SDS011;6217;48.150;17.142;2023-01-26T23:07:47;26.92;;;14.38;;
12308;SDS011;6217;48.150;17.142;2023-01-26T23:11:53;33.65;;;15.90;;
12308;SDS011;6217;48.150;17.142;2023-01-26T23:15:59;25.50;;;14.35;;
12308;SDS011;6217;48.150;17.142;2023-01-26T23:20:06;24.85;;;12.52;;
12308;SDS011;6217;48.150;17.142;2023-01-26T23:24:12;27.80;;;13.32;;
12308;SDS011;6217;48.150;17.142;2023-01-26T23:32:45;19.60;;;11.43;;
12308;SDS011;6217;48.150;17.142;2023-01-26T23:36:51;21.40;;;10.48;;
12308;SDS011;6217;48.150;17.142;2023-01-26T23:40:57;18.25;;;10.13;;
12308;SDS011;6217;48.150;17.142;2023-01-26T23:45:04;20.48;;;10.40;;
12308;SDS011;6217;48.150;17.142;2023-01-26T23:49:14;18.65;;;10.02;;
12308;SDS011;6217;48.150;17.142;2023-01-26T23:53:19;17.63;;;10.55;;
12308;SDS011;6217;48.150;17.142;2023-01-26T23:57:25;16.70;;;9.02;;
